Flugplatz Pasewalk

Für EDCV sind keine METAR/TAF Berichte vorhanden.
Es werden die Flugwettermeldungen vom Flugplatz Heringsdorf in 43 km Entfernung angezeigt.

Prognose für EDAH

vom 23.02. um 00:00 UTC

Am 23.02. zwischen 00:00 UTC und 00:00 UTC

Wind 8 kt aus 240°

Sichtweite 10 km oder mehr

aufgebrochene Bewölkung in 1500 ft


Am 23.02. zwischen 00:00 UTC und 00:00 UTC zeitweise

Sichtweite 4500 m

Regen

Sprühregen

aufgebrochene Bewölkung in 800 ft


Am 23.02. zwischen 00:00 und 00:00 UTC übergehend zu

Wind 15 kt aus 270° in Böen 30 kt

Sichtweite 10 km oder mehr

aufgebrochene Bewölkung in 1500 ft

TAF EDAH 231400Z 2315/2324 24008KT 9999 BKN015 TEMPO 2315/2321 4500 RADZ BKN008 BECMG 2317/2320 27015G30KT
Impressum